sensor_id;sensor_type;location;lat;lon;timestamp;temperature;humidity
38239;DHT22;24035;48.900;9.188;2023-04-15T00:01:20;3.70;99.90
38239;DHT22;24035;48.900;9.188;2023-04-15T00:03:47;3.60;99.90
38239;DHT22;24035;48.900;9.188;2023-04-15T00:06:13;3.50;99.90
38239;DHT22;24035;48.900;9.188;2023-04-15T00:08:39;3.60;1.00
38239;DHT22;24035;48.900;9.188;2023-04-15T00:11:05;3.60;1.00
38239;DHT22;24035;48.900;9.188;2023-04-15T00:13:31;3.50;1.00
38239;DHT22;24035;48.900;9.188;2023-04-15T00:15:59;3.50;1.00
38239;DHT22;24035;48.900;9.188;2023-04-15T00:18:26;3.40;1.00
38239;DHT22;24035;48.900;9.188;2023-04-15T00:20:51;3.40;1.00
38239;DHT22;24035;48.900;9.188;2023-04-15T00:23:17;3.40;1.00
38239;DHT22;24035;48.900;9.188;2023-04-15T00:25:43;3.20;1.00
38239;DHT22;24035;48.900;9.188;2023-04-15T00:28:09;3.20;1.00
38239;DHT22;24035;48.900;9.188;2023-04-15T00:30:35;3.10;1.00
38239;DHT22;24035;48.900;9.188;2023-04-15T00:33:01;3.10;1.00
38239;DHT22;24035;48.900;9.188;2023-04-15T00:35:28;3.10;10.10
38239;DHT22;24035;48.900;9.188;2023-04-15T00:37:54;3.10;7.20
38239;DHT22;24035;48.900;9.188;2023-04-15T00:40:20;3.10;41.50
38239;DHT22;24035;48.900;9.188;2023-04-15T00:42:46;3.10;99.90
38239;DHT22;24035;48.900;9.188;2023-04-15T00:45:12;3.10;99.90
38239;DHT22;24035;48.900;9.188;2023-04-15T00:47:40;3.20;1.00
38239;DHT22;24035;48.900;9.188;2023-04-15T00:50:06;3.10;99.90
38239;DHT22;24035;48.900;9.188;2023-04-15T00:52:32;3.00;99.90
38239;DHT22;24035;48.900;9.188;2023-04-15T00:54:59;3.00;1.00
38239;DHT22;24035;48.900;9.188;2023-04-15T00:57:25;3.20;1.00
38239;DHT22;24035;48.900;9.188;2023-04-15T00:59:51;3.40;1.00
38239;DHT22;24035;48.900;9.188;2023-04-15T01:02:18;3.40;1.00
38239;DHT22;24035;48.900;9.188;2023-04-15T01:04:44;3.50;1.00
38239;DHT22;24035;48.900;9.188;2023-04-15T01:07:10;3.50;99.90
38239;DHT22;24035;48.900;9.188;2023-04-15T01:09:35;3.50;99.90
38239;DHT22;24035;48.900;9.188;2023-04-15T01:12:01;3.40;1.00
38239;DHT22;24035;48.900;9.188;2023-04-15T01:14:28;3.30;1.00
38239;DHT22;24035;48.900;9.188;2023-04-15T01:16:54;3.20;1.00
38239;DHT22;24035;48.900;9.188;2023-04-15T01:19:20;3.00;1.00
38239;DHT22;24035;48.900;9.188;2023-04-15T01:21:46;2.90;1.00
38239;DHT22;24035;48.900;9.188;2023-04-15T01:24:12;2.80;1.00
38239;DHT22;24035;48.900;9.188;2023-04-15T01:26:40;2.80;99.90
38239;DHT22;24035;48.900;9.188;2023-04-15T01:29:07;2.80;1.00
38239;DHT22;24035;48.900;9.188;2023-04-15T01:31:33;2.70;1.00
38239;DHT22;24035;48.900;9.188;2023-04-15T01:34:00;2.70;1.00
38239;DHT22;24035;48.900;9.188;2023-04-15T01:36:25;2.60;1.00
38239;DHT22;24035;48.900;9.188;2023-04-15T01:38:51;2.60;1.00
38239;DHT22;24035;48.900;9.188;2023-04-15T01:41:23;2.50;1.00
38239;DHT22;24035;48.900;9.188;2023-04-15T01:43:49;2.50;1.00
38239;DHT22;24035;48.900;9.188;2023-04-15T01:46:15;2.50;99.90
38239;DHT22;24035;48.900;9.188;2023-04-15T01:48:41;2.60;99.90
38239;DHT22;24035;48.900;9.188;2023-04-15T01:51:07;2.60;1.00
38239;DHT22;24035;48.900;9.188;2023-04-15T01:53:32;2.70;1.00
38239;DHT22;24035;48.900;9.188;2023-04-15T01:55:58;2.70;1.00
38239;DHT22;24035;48.900;9.188;2023-04-15T01:58:24;2.60;1.00
38239;DHT22;24035;48.900;9.188;2023-04-15T02:00:50;2.60;99.90
38239;DHT22;24035;48.900;9.188;2023-04-15T02:03:16;2.60;1.00
38239;DHT22;24035;48.900;9.188;2023-04-15T02:05:42;2.50;1.00
38239;DHT22;24035;48.900;9.188;2023-04-15T02:08:08;2.50;1.00
38239;DHT22;24035;48.900;9.188;2023-04-15T02:10:34;2.50;1.00
38239;DHT22;24035;48.900;9.188;2023-04-15T02:13:00;2.50;1.00
38239;DHT22;24035;48.900;9.188;2023-04-15T02:15:26;2.50;1.00
38239;DHT22;24035;48.900;9.188;2023-04-15T02:17:52;2.50;1.00
38239;DHT22;24035;48.900;9.188;2023-04-15T02:20:20;2.60;93.40
38239;DHT22;24035;48.900;9.188;2023-04-15T02:22:46;2.50;1.00
38239;DHT22;24035;48.900;9.188;2023-04-15T02:25:13;2.40;1.00
38239;DHT22;24035;48.900;9.188;2023-04-15T02:27:39;2.30;1.00
38239;DHT22;24035;48.900;9.188;2023-04-15T02:30:05;2.30;1.00
38239;DHT22;24035;48.900;9.188;2023-04-15T02:32:32;2.20;1.00
38239;DHT22;24035;48.900;9.188;2023-04-15T02:35:04;2.20;1.00
38239;DHT22;24035;48.900;9.188;2023-04-15T02:37:31;2.20;1.00
38239;DHT22;24035;48.900;9.188;2023-04-15T02:39:57;2.20;1.00
38239;DHT22;24035;48.900;9.188;2023-04-15T02:42:23;2.30;32.20
38239;DHT22;24035;48.900;9.188;2023-04-15T02:44:52;2.20;1.00
38239;DHT22;24035;48.900;9.188;2023-04-15T02:47:19;2.30;56.90
38239;DHT22;24035;48.900;9.188;2023-04-15T02:49:45;2.20;1.00
38239;DHT22;24035;48.900;9.188;2023-04-15T02:52:10;2.20;81.30
38239;DHT22;24035;48.900;9.188;2023-04-15T02:54:36;2.30;1.00
38239;DHT22;24035;48.900;9.188;2023-04-15T02:57:02;2.40;1.00
38239;DHT22;24035;48.900;9.188;2023-04-15T02:59:30;2.40;99.90
38239;DHT22;24035;48.900;9.188;2023-04-15T03:01:56;2.50;99.90
38239;DHT22;24035;48.900;9.188;2023-04-15T03:04:25;2.50;99.90
38239;DHT22;24035;48.900;9.188;2023-04-15T03:06:51;2.50;99.90
38239;DHT22;24035;48.900;9.188;2023-04-15T03:09:17;2.50;80.00
38239;DHT22;24035;48.900;9.188;2023-04-15T03:11:43;2.40;1.00
38239;DHT22;24035;48.900;9.188;2023-04-15T03:14:08;2.40;1.00
38239;DHT22;24035;48.900;9.188;2023-04-15T03:16:34;2.30;1.00
38239;DHT22;24035;48.900;9.188;2023-04-15T03:19:00;2.30;1.00
38239;DHT22;24035;48.900;9.188;2023-04-15T03:21:26;2.20;1.00
38239;DHT22;24035;48.900;9.188;2023-04-15T03:23:52;2.30;99.90
38239;DHT22;24035;48.900;9.188;2023-04-15T03:26:26;2.30;1.00
38239;DHT22;24035;48.900;9.188;2023-04-15T03:28:53;2.50;1.00
38239;DHT22;24035;48.900;9.188;2023-04-15T03:31:18;2.40;1.00
38239;DHT22;24035;48.900;9.188;2023-04-15T03:33:44;2.30;99.90
38239;DHT22;24035;48.900;9.188;2023-04-15T03:36:10;2.30;99.90
38239;DHT22;24035;48.900;9.188;2023-04-15T03:38:35;2.30;1.00
38239;DHT22;24035;48.900;9.188;2023-04-15T03:41:01;2.30;1.00
38239;DHT22;24035;48.900;9.188;2023-04-15T03:43:27;2.40;1.00
38239;DHT22;24035;48.900;9.188;2023-04-15T03:45:53;2.30;99.90
38239;DHT22;24035;48.900;9.188;2023-04-15T03:48:18;2.30;99.90
38239;DHT22;24035;48.900;9.188;2023-04-15T03:50:44;2.30;1.00
38239;DHT22;24035;48.900;9.188;2023-04-15T03:53:10;2.50;1.00
38239;DHT22;24035;48.900;9.188;2023-04-15T03:55:36;2.50;1.00
38239;DHT22;24035;48.900;9.188;2023-04-15T03:58:02;2.40;99.90
38239;DHT22;24035;48.900;9.188;2023-04-15T04:00:28;2.30;99.90
38239;DHT22;24035;48.900;9.188;2023-04-15T04:02:54;2.30;99.90
38239;DHT22;24035;48.900;9.188;2023-04-15T04:05:19;2.20;99.90
38239;DHT22;24035;48.900;9.188;2023-04-15T04:07:45;2.20;99.90
38239;DHT22;24035;48.900;9.188;2023-04-15T04:10:11;2.10;1.00
38239;DHT22;24035;48.900;9.188;2023-04-15T04:12:37;2.20;99.90
38239;DHT22;24035;48.900;9.188;2023-04-15T04:15:04;2.20;99.90
38239;DHT22;24035;48.900;9.188;2023-04-15T04:17:30;2.30;99.90
38239;DHT22;24035;48.900;9.188;2023-04-15T04:19:55;2.30;1.00
38239;DHT22;24035;48.900;9.188;2023-04-15T04:22:22;2.30;1.00
38239;DHT22;24035;48.900;9.188;2023-04-15T04:24:48;2.40;1.00
38239;DHT22;24035;48.900;9.188;2023-04-15T04:27:14;2.50;1.00
38239;DHT22;24035;48.900;9.188;2023-04-15T04:29:40;2.40;99.90
38239;DHT22;24035;48.900;9.188;2023-04-15T04:32:06;2.40;99.90
38239;DHT22;24035;48.900;9.188;2023-04-15T04:34:31;2.40;15.50
38239;DHT22;24035;48.900;9.188;2023-04-15T04:36:57;2.30;1.00
38239;DHT22;24035;48.900;9.188;2023-04-15T04:39:23;2.20;1.00
38239;DHT22;24035;48.900;9.188;2023-04-15T04:41:49;2.10;1.00
38239;DHT22;24035;48.900;9.188;2023-04-15T04:44:16;2.20;99.90
38239;DHT22;24035;48.900;9.188;2023-04-15T04:46:42;2.30;99.90
38239;DHT22;24035;48.900;9.188;2023-04-15T04:49:08;2.40;99.90
38239;DHT22;24035;48.900;9.188;2023-04-15T04:51:34;2.50;1.00
38239;DHT22;24035;48.900;9.188;2023-04-15T04:54:00;2.60;1.00
38239;DHT22;24035;48.900;9.188;2023-04-15T04:56:26;2.70;1.00
38239;DHT22;24035;48.900;9.188;2023-04-15T04:58:52;2.70;99.90
38239;DHT22;24035;48.900;9.188;2023-04-15T05:01:17;2.70;52.50
38239;DHT22;24035;48.900;9.188;2023-04-15T05:03:43;2.70;1.00
38239;DHT22;24035;48.900;9.188;2023-04-15T05:06:09;2.80;1.00
38239;DHT22;24035;48.900;9.188;2023-04-15T05:08:35;2.80;1.00
38239;DHT22;24035;48.900;9.188;2023-04-15T05:11:01;2.90;1.00
38239;DHT22;24035;48.900;9.188;2023-04-15T05:13:27;3.00;1.00
38239;DHT22;24035;48.900;9.188;2023-04-15T05:15:54;3.00;1.00
38239;DHT22;24035;48.900;9.188;2023-04-15T05:18:20;3.20;1.00
38239;DHT22;24035;48.900;9.188;2023-04-15T05:20:46;3.20;99.90
38239;DHT22;24035;48.900;9.188;2023-04-15T05:23:11;3.20;12.70
38239;DHT22;24035;48.900;9.188;2023-04-15T05:25:37;3.30;1.00
38239;DHT22;24035;48.900;9.188;2023-04-15T05:28:02;3.30;1.00
38239;DHT22;24035;48.900;9.188;2023-04-15T05:30:28;3.40;1.00
38239;DHT22;24035;48.900;9.188;2023-04-15T05:32:54;3.40;1.00
38239;DHT22;24035;48.900;9.188;2023-04-15T05:35:20;3.50;99.90
38239;DHT22;24035;48.900;9.188;2023-04-15T05:37:45;3.60;99.90
38239;DHT22;24035;48.900;9.188;2023-04-15T05:40:11;3.70;21.70
38239;DHT22;24035;48.900;9.188;2023-04-15T05:42:37;3.80;1.00
38239;DHT22;24035;48.900;9.188;2023-04-15T05:45:03;4.00;1.00
38239;DHT22;24035;48.900;9.188;2023-04-15T05:47:36;4.20;1.00
38239;DHT22;24035;48.900;9.188;2023-04-15T05:50:03;4.30;99.90
38239;DHT22;24035;48.900;9.188;2023-04-15T05:52:30;4.50;99.90
38239;DHT22;24035;48.900;9.188;2023-04-15T05:54:55;4.70;99.90
38239;DHT22;24035;48.900;9.188;2023-04-15T05:57:21;5.00;99.90
38239;DHT22;24035;48.900;9.188;2023-04-15T05:59:47;5.00;99.90
38239;DHT22;24035;48.900;9.188;2023-04-15T06:02:13;5.10;1.10
38239;DHT22;24035;48.900;9.188;2023-04-15T06:04:39;5.20;1.00
38239;DHT22;24035;48.900;9.188;2023-04-15T06:07:04;5.30;1.00
38239;DHT22;24035;48.900;9.188;2023-04-15T06:09:30;5.50;1.00
38239;DHT22;24035;48.900;9.188;2023-04-15T06:11:56;5.60;99.90
38239;DHT22;24035;48.900;9.188;2023-04-15T06:14:22;5.90;99.90
38239;DHT22;24035;48.900;9.188;2023-04-15T06:16:48;6.20;1.00
38239;DHT22;24035;48.900;9.188;2023-04-15T06:19:13;6.40;1.00
38239;DHT22;24035;48.900;9.188;2023-04-15T06:21:39;6.50;99.90
38239;DHT22;24035;48.900;9.188;2023-04-15T06:24:05;6.60;99.90
38239;DHT22;24035;48.900;9.188;2023-04-15T06:26:31;6.70;99.90
38239;DHT22;24035;48.900;9.188;2023-04-15T06:28:56;6.80;1.00
38239;DHT22;24035;48.900;9.188;2023-04-15T06:31:22;6.70;1.00
38239;DHT22;24035;48.900;9.188;2023-04-15T06:33:47;7.00;1.00
38239;DHT22;24035;48.900;9.188;2023-04-15T06:36:13;7.10;1.00
38239;DHT22;24035;48.900;9.188;2023-04-15T06:38:39;7.30;1.00
38239;DHT22;24035;48.900;9.188;2023-04-15T06:41:05;7.50;1.00
38239;DHT22;24035;48.900;9.188;2023-04-15T06:43:31;7.60;99.90
38239;DHT22;24035;48.900;9.188;2023-04-15T06:45:57;8.40;99.90
38239;DHT22;24035;48.900;9.188;2023-04-15T06:48:23;8.80;54.70
38239;DHT22;24035;48.900;9.188;2023-04-15T06:50:49;9.70;1.00
38239;DHT22;24035;48.900;9.188;2023-04-15T06:53:14;10.50;1.00
38239;DHT22;24035;48.900;9.188;2023-04-15T06:55:40;10.90;1.00
38239;DHT22;24035;48.900;9.188;2023-04-15T06:58:06;11.40;1.00
38239;DHT22;24035;48.900;9.188;2023-04-15T07:00:32;11.60;99.90
38239;DHT22;24035;48.900;9.188;2023-04-15T07:02:59;11.80;99.90
38239;DHT22;24035;48.900;9.188;2023-04-15T07:05:28;11.60;99.90
38239;DHT22;24035;48.900;9.188;2023-04-15T07:07:54;11.30;99.90
38239;DHT22;24035;48.900;9.188;2023-04-15T07:10:20;10.90;1.00
38239;DHT22;24035;48.900;9.188;2023-04-15T07:12:47;11.00;99.90
38239;DHT22;24035;48.900;9.188;2023-04-15T07:15:13;10.60;1.00
38239;DHT22;24035;48.900;9.188;2023-04-15T07:17:40;9.70;1.00
38239;DHT22;24035;48.900;9.188;2023-04-15T07:20:06;9.10;1.00
38239;DHT22;24035;48.900;9.188;2023-04-15T07:22:32;8.90;1.00
38239;DHT22;24035;48.900;9.188;2023-04-15T07:24:58;8.90;1.00
38239;DHT22;24035;48.900;9.188;2023-04-15T07:27:24;8.90;1.00
38239;DHT22;24035;48.900;9.188;2023-04-15T07:29:50;8.60;99.90
38239;DHT22;24035;48.900;9.188;2023-04-15T07:32:16;8.60;99.90
38239;DHT22;24035;48.900;9.188;2023-04-15T07:34:42;8.80;99.90
38239;DHT22;24035;48.900;9.188;2023-04-15T07:37:08;9.60;99.90
38239;DHT22;24035;48.900;9.188;2023-04-15T07:39:34;11.10;1.00
38239;DHT22;24035;48.900;9.188;2023-04-15T07:42:00;12.60;1.00
38239;DHT22;24035;48.900;9.188;2023-04-15T07:44:26;13.70;99.90
38239;DHT22;24035;48.900;9.188;2023-04-15T07:46:52;14.30;99.90
38239;DHT22;24035;48.900;9.188;2023-04-15T07:49:18;14.40;99.90
38239;DHT22;24035;48.900;9.188;2023-04-15T07:51:45;14.10;99.90
38239;DHT22;24035;48.900;9.188;2023-04-15T07:54:11;13.60;99.90
38239;DHT22;24035;48.900;9.188;2023-04-15T07:56:37;13.40;99.90
38239;DHT22;24035;48.900;9.188;2023-04-15T07:59:02;13.50;99.90
38239;DHT22;24035;48.900;9.188;2023-04-15T08:01:30;13.70;99.90
38239;DHT22;24035;48.900;9.188;2023-04-15T08:04:00;13.30;99.90
38239;DHT22;24035;48.900;9.188;2023-04-15T08:06:26;14.00;99.90
38239;DHT22;24035;48.900;9.188;2023-04-15T08:08:52;14.50;99.90
38239;DHT22;24035;48.900;9.188;2023-04-15T08:11:20;14.70;99.90
38239;DHT22;24035;48.900;9.188;2023-04-15T08:13:46;15.10;99.90
38239;DHT22;24035;48.900;9.188;2023-04-15T08:16:22;15.20;99.90
38239;DHT22;24035;48.900;9.188;2023-04-15T08:18:49;15.20;99.90
38239;DHT22;24035;48.900;9.188;2023-04-15T08:21:16;14.60;99.90
38239;DHT22;24035;48.900;9.188;2023-04-15T08:23:44;14.30;99.90
38239;DHT22;24035;48.900;9.188;2023-04-15T08:26:10;14.20;99.90
38239;DHT22;24035;48.900;9.188;2023-04-15T08:28:38;14.00;99.90
38239;DHT22;24035;48.900;9.188;2023-04-15T08:31:03;13.70;99.90
38239;DHT22;24035;48.900;9.188;2023-04-15T08:33:29;13.40;99.90
38239;DHT22;24035;48.900;9.188;2023-04-15T08:35:55;12.60;99.90
38239;DHT22;24035;48.900;9.188;2023-04-15T08:38:22;12.00;99.90
38239;DHT22;24035;48.900;9.188;2023-04-15T08:40:48;11.80;99.90
38239;DHT22;24035;48.900;9.188;2023-04-15T08:43:21;12.00;99.90
38239;DHT22;24035;48.900;9.188;2023-04-15T08:45:51;12.30;99.90
38239;DHT22;24035;48.900;9.188;2023-04-15T08:48:18;12.10;99.90
38239;DHT22;24035;48.900;9.188;2023-04-15T08:50:44;12.00;99.90
38239;DHT22;24035;48.900;9.188;2023-04-15T08:53:11;12.00;99.90
38239;DHT22;24035;48.900;9.188;2023-04-15T08:55:42;11.70;99.90
38239;DHT22;24035;48.900;9.188;2023-04-15T08:58:09;11.70;99.90
38239;DHT22;24035;48.900;9.188;2023-04-15T09:00:36;11.90;99.90
38239;DHT22;24035;48.900;9.188;2023-04-15T09:03:04;12.40;99.90
38239;DHT22;24035;48.900;9.188;2023-04-15T09:05:37;12.80;99.90
38239;DHT22;24035;48.900;9.188;2023-04-15T09:08:04;12.80;99.90
38239;DHT22;24035;48.900;9.188;2023-04-15T09:10:31;12.60;99.90
38239;DHT22;24035;48.900;9.188;2023-04-15T09:12:57;12.50;99.90
38239;DHT22;24035;48.900;9.188;2023-04-15T09:15:24;12.50;99.90
38239;DHT22;24035;48.900;9.188;2023-04-15T09:17:52;12.70;99.90
38239;DHT22;24035;48.900;9.188;2023-04-15T09:20:17;13.00;99.90
38239;DHT22;24035;48.900;9.188;2023-04-15T09:22:45;13.20;99.90
38239;DHT22;24035;48.900;9.188;2023-04-15T09:27:49;13.50;99.90
38239;DHT22;24035;48.900;9.188;2023-04-15T09:30:15;13.70;99.90
38239;DHT22;24035;48.900;9.188;2023-04-15T09:32:54;13.80;99.90
38239;DHT22;24035;48.900;9.188;2023-04-15T09:35:21;13.80;99.90
38239;DHT22;24035;48.900;9.188;2023-04-15T09:37:47;13.70;99.90
38239;DHT22;24035;48.900;9.188;2023-04-15T09:40:14;13.80;99.90
38239;DHT22;24035;48.900;9.188;2023-04-15T09:42:53;13.90;99.90
38239;DHT22;24035;48.900;9.188;2023-04-15T09:45:21;13.70;99.90
38239;DHT22;24035;48.900;9.188;2023-04-15T09:47:46;13.80;99.90
38239;DHT22;24035;48.900;9.188;2023-04-15T09:50:12;13.80;99.90
38239;DHT22;24035;48.900;9.188;2023-04-15T09:52:43;13.80;99.90
38239;DHT22;24035;48.900;9.188;2023-04-15T09:55:09;14.00;99.90
38239;DHT22;24035;48.900;9.188;2023-04-15T09:57:37;14.10;99.90
38239;DHT22;24035;48.900;9.188;2023-04-15T10:00:04;14.40;99.90
38239;DHT22;24035;48.900;9.188;2023-04-15T10:02:31;14.40;99.90
38239;DHT22;24035;48.900;9.188;2023-04-15T10:04:57;14.50;99.90
38239;DHT22;24035;48.900;9.188;2023-04-15T10:07:25;14.40;99.90
38239;DHT22;24035;48.900;9.188;2023-04-15T10:09:51;13.90;99.90
38239;DHT22;24035;48.900;9.188;2023-04-15T10:12:18;13.60;99.90
38239;DHT22;24035;48.900;9.188;2023-04-15T10:14:57;13.50;99.90
38239;DHT22;24035;48.900;9.188;2023-04-15T10:17:26;13.80;99.90
38239;DHT22;24035;48.900;9.188;2023-04-15T10:19:54;14.30;99.90
38239;DHT22;24035;48.900;9.188;2023-04-15T10:22:21;14.20;99.90
38239;DHT22;24035;48.900;9.188;2023-04-15T10:24:48;14.10;99.90
38239;DHT22;24035;48.900;9.188;2023-04-15T10:27:16;13.90;99.90
38239;DHT22;24035;48.900;9.188;2023-04-15T10:29:42;14.10;99.90
38239;DHT22;24035;48.900;9.188;2023-04-15T10:32:08;13.90;99.90
38239;DHT22;24035;48.900;9.188;2023-04-15T10:34:36;13.80;99.90
38239;DHT22;24035;48.900;9.188;2023-04-15T10:37:02;13.90;99.90
38239;DHT22;24035;48.900;9.188;2023-04-15T10:39:42;14.10;99.90
38239;DHT22;24035;48.900;9.188;2023-04-15T10:42:13;13.90;99.90
38239;DHT22;24035;48.900;9.188;2023-04-15T10:44:44;13.70;99.90
38239;DHT22;24035;48.900;9.188;2023-04-15T10:47:14;13.80;99.90
38239;DHT22;24035;48.900;9.188;2023-04-15T10:49:48;13.80;99.90
38239;DHT22;24035;48.900;9.188;2023-04-15T10:52:16;13.90;99.90
38239;DHT22;24035;48.900;9.188;2023-04-15T10:54:45;13.80;99.90
38239;DHT22;24035;48.900;9.188;2023-04-15T10:57:22;13.80;99.90
38239;DHT22;24035;48.900;9.188;2023-04-15T11:02:43;14.00;99.90
38239;DHT22;24035;48.900;9.188;2023-04-15T11:05:10;14.20;99.90
38239;DHT22;24035;48.900;9.188;2023-04-15T11:12:43;14.90;99.90
38239;DHT22;24035;48.900;9.188;2023-04-15T11:15:34;14.70;99.90
38239;DHT22;24035;48.900;9.188;2023-04-15T11:18:11;14.60;99.90
38239;DHT22;24035;48.900;9.188;2023-04-15T11:20:39;14.50;99.90
38239;DHT22;24035;48.900;9.188;2023-04-15T11:23:05;14.10;99.90
38239;DHT22;24035;48.900;9.188;2023-04-15T11:25:33;13.80;99.90
38239;DHT22;24035;48.900;9.188;2023-04-15T11:28:00;13.50;99.90
38239;DHT22;24035;48.900;9.188;2023-04-15T11:30:34;14.00;99.90
38239;DHT22;24035;48.900;9.188;2023-04-15T11:33:02;14.50;99.90
38239;DHT22;24035;48.900;9.188;2023-04-15T11:35:28;14.70;99.90
38239;DHT22;24035;48.900;9.188;2023-04-15T11:37:55;14.70;99.90
38239;DHT22;24035;48.900;9.188;2023-04-15T11:40:24;14.80;99.90
38239;DHT22;24035;48.900;9.188;2023-04-15T11:43:11;14.50;99.90
38239;DHT22;24035;48.900;9.188;2023-04-15T11:45:47;14.60;99.90
38239;DHT22;24035;48.900;9.188;2023-04-15T11:48:14;14.70;99.90
38239;DHT22;24035;48.900;9.188;2023-04-15T11:50:40;14.10;99.90
38239;DHT22;24035;48.900;9.188;2023-04-15T11:53:08;13.60;99.90
38239;DHT22;24035;48.900;9.188;2023-04-15T11:55:45;13.10;99.90
38239;DHT22;24035;48.900;9.188;2023-04-15T11:58:13;13.00;99.90
38239;DHT22;24035;48.900;9.188;2023-04-15T12:00:45;13.30;99.90
38239;DHT22;24035;48.900;9.188;2023-04-15T12:03:27;13.50;99.90
38239;DHT22;24035;48.900;9.188;2023-04-15T12:11:29;13.50;99.90
38239;DHT22;24035;48.900;9.188;2023-04-15T12:14:02;13.10;99.90
38239;DHT22;24035;48.900;9.188;2023-04-15T12:16:29;12.50;99.90
38239;DHT22;24035;48.900;9.188;2023-04-15T12:18:57;12.00;99.90
38239;DHT22;24035;48.900;9.188;2023-04-15T12:21:34;11.20;1.00
38239;DHT22;24035;48.900;9.188;2023-04-15T12:24:03;10.10;32.90
38239;DHT22;24035;48.900;9.188;2023-04-15T12:26:33;9.60;1.00
38239;DHT22;24035;48.900;9.188;2023-04-15T12:29:03;9.30;1.00
38239;DHT22;24035;48.900;9.188;2023-04-15T12:31:29;9.20;1.00
38239;DHT22;24035;48.900;9.188;2023-04-15T12:33:58;9.00;15.60
38239;DHT22;24035;48.900;9.188;2023-04-15T12:36:26;9.00;99.90
38239;DHT22;24035;48.900;9.188;2023-04-15T12:38:51;9.20;99.90
38239;DHT22;24035;48.900;9.188;2023-04-15T12:41:17;9.50;99.90
38239;DHT22;24035;48.900;9.188;2023-04-15T12:43:44;9.80;99.90
38239;DHT22;24035;48.900;9.188;2023-04-15T12:46:11;10.40;99.90
38239;DHT22;24035;48.900;9.188;2023-04-15T12:48:37;10.80;1.00
38239;DHT22;24035;48.900;9.188;2023-04-15T12:51:03;10.90;1.00
38239;DHT22;24035;48.900;9.188;2023-04-15T12:53:28;10.90;1.00
38239;DHT22;24035;48.900;9.188;2023-04-15T12:55:54;11.00;1.00
38239;DHT22;24035;48.900;9.188;2023-04-15T12:58:20;11.30;1.00
38239;DHT22;24035;48.900;9.188;2023-04-15T13:00:46;11.60;1.00
38239;DHT22;24035;48.900;9.188;2023-04-15T13:03:13;11.80;99.90
38239;DHT22;24035;48.900;9.188;2023-04-15T13:05:39;11.60;99.90
38239;DHT22;24035;48.900;9.188;2023-04-15T13:08:05;11.60;1.00
38239;DHT22;24035;48.900;9.188;2023-04-15T13:10:31;11.70;1.00
38239;DHT22;24035;48.900;9.188;2023-04-15T13:12:57;11.70;1.00
38239;DHT22;24035;48.900;9.188;2023-04-15T13:15:23;11.80;99.90
38239;DHT22;24035;48.900;9.188;2023-04-15T13:17:50;11.80;99.90
38239;DHT22;24035;48.900;9.188;2023-04-15T13:20:16;11.90;99.90
38239;DHT22;24035;48.900;9.188;2023-04-15T13:22:42;11.90;99.90
38239;DHT22;24035;48.900;9.188;2023-04-15T13:25:08;11.90;99.90
38239;DHT22;24035;48.900;9.188;2023-04-15T13:27:33;12.00;99.90
38239;DHT22;24035;48.900;9.188;2023-04-15T13:29:59;12.00;99.90
38239;DHT22;24035;48.900;9.188;2023-04-15T13:32:25;11.90;99.90
38239;DHT22;24035;48.900;9.188;2023-04-15T13:34:50;12.10;99.90
38239;DHT22;24035;48.900;9.188;2023-04-15T13:37:16;12.10;99.90
38239;DHT22;24035;48.900;9.188;2023-04-15T13:39:42;12.10;99.90
38239;DHT22;24035;48.900;9.188;2023-04-15T13:42:08;12.00;99.90
38239;DHT22;24035;48.900;9.188;2023-04-15T13:44:34;11.90;99.90
38239;DHT22;24035;48.900;9.188;2023-04-15T13:47:00;11.90;99.90
38239;DHT22;24035;48.900;9.188;2023-04-15T13:49:26;11.90;99.90
38239;DHT22;24035;48.900;9.188;2023-04-15T13:51:51;11.80;99.90
38239;DHT22;24035;48.900;9.188;2023-04-15T13:54:17;11.80;99.90
38239;DHT22;24035;48.900;9.188;2023-04-15T13:56:43;11.70;99.90
38239;DHT22;24035;48.900;9.188;2023-04-15T13:59:08;11.80;99.90
38239;DHT22;24035;48.900;9.188;2023-04-15T14:01:34;11.90;99.90
38239;DHT22;24035;48.900;9.188;2023-04-15T14:04:00;11.70;99.90
38239;DHT22;24035;48.900;9.188;2023-04-15T14:06:27;11.70;99.90
38239;DHT22;24035;48.900;9.188;2023-04-15T14:08:53;11.70;99.90
38239;DHT22;24035;48.900;9.188;2023-04-15T14:11:19;11.50;99.90
38239;DHT22;24035;48.900;9.188;2023-04-15T14:13:45;11.50;99.90
38239;DHT22;24035;48.900;9.188;2023-04-15T14:16:11;11.40;99.90
38239;DHT22;24035;48.900;9.188;2023-04-15T14:18:36;11.40;99.90
38239;DHT22;24035;48.900;9.188;2023-04-15T14:21:03;11.50;99.90
38239;DHT22;24035;48.900;9.188;2023-04-15T14:23:29;11.60;99.90
38239;DHT22;24035;48.900;9.188;2023-04-15T14:25:55;11.60;99.90
38239;DHT22;24035;48.900;9.188;2023-04-15T14:28:20;11.60;99.90
38239;DHT22;24035;48.900;9.188;2023-04-15T14:30:46;11.70;99.90
38239;DHT22;24035;48.900;9.188;2023-04-15T14:33:12;11.70;99.90
38239;DHT22;24035;48.900;9.188;2023-04-15T14:35:38;11.80;99.90
38239;DHT22;24035;48.900;9.188;2023-04-15T14:38:03;11.80;99.90
38239;DHT22;24035;48.900;9.188;2023-04-15T14:40:31;11.70;99.90
38239;DHT22;24035;48.900;9.188;2023-04-15T14:42:57;11.60;99.90
38239;DHT22;24035;48.900;9.188;2023-04-15T14:45:23;11.50;99.90
38239;DHT22;24035;48.900;9.188;2023-04-15T14:47:49;11.40;99.90
38239;DHT22;24035;48.900;9.188;2023-04-15T14:50:15;11.40;99.90
38239;DHT22;24035;48.900;9.188;2023-04-15T14:52:41;11.30;99.90
38239;DHT22;24035;48.900;9.188;2023-04-15T14:55:09;11.10;99.90
38239;DHT22;24035;48.900;9.188;2023-04-15T14:57:35;11.00;99.90
38239;DHT22;24035;48.900;9.188;2023-04-15T15:00:02;10.90;99.90
38239;DHT22;24035;48.900;9.188;2023-04-15T15:02:28;10.90;99.90
38239;DHT22;24035;48.900;9.188;2023-04-15T15:04:56;10.80;99.90
38239;DHT22;24035;48.900;9.188;2023-04-15T15:07:22;10.80;99.90
38239;DHT22;24035;48.900;9.188;2023-04-15T15:09:48;10.70;99.90
38239;DHT22;24035;48.900;9.188;2023-04-15T15:12:13;10.80;99.90
38239;DHT22;24035;48.900;9.188;2023-04-15T15:14:39;10.70;99.90
38239;DHT22;24035;48.900;9.188;2023-04-15T15:17:05;10.80;99.90
38239;DHT22;24035;48.900;9.188;2023-04-15T15:19:31;10.70;99.90
38239;DHT22;24035;48.900;9.188;2023-04-15T15:21:56;10.70;99.90
38239;DHT22;24035;48.900;9.188;2023-04-15T15:24:22;10.60;99.90
38239;DHT22;24035;48.900;9.188;2023-04-15T15:26:48;10.60;99.90
38239;DHT22;24035;48.900;9.188;2023-04-15T15:29:13;10.60;99.90
38239;DHT22;24035;48.900;9.188;2023-04-15T15:31:39;10.70;99.90
38239;DHT22;24035;48.900;9.188;2023-04-15T15:34:05;10.70;99.90
38239;DHT22;24035;48.900;9.188;2023-04-15T15:36:30;10.70;99.90
38239;DHT22;24035;48.900;9.188;2023-04-15T15:38:57;10.60;99.90
38239;DHT22;24035;48.900;9.188;2023-04-15T15:41:23;10.50;99.90
38239;DHT22;24035;48.900;9.188;2023-04-15T15:43:50;10.40;99.90
38239;DHT22;24035;48.900;9.188;2023-04-15T15:46:15;10.30;99.90
38239;DHT22;24035;48.900;9.188;2023-04-15T15:48:42;10.30;99.90
38239;DHT22;24035;48.900;9.188;2023-04-15T15:51:08;10.10;99.90
38239;DHT22;24035;48.900;9.188;2023-04-15T15:53:34;10.00;1.00
38239;DHT22;24035;48.900;9.188;2023-04-15T15:56:00;9.70;1.00